Time;durP1;ratioP1;P1;durP2;ratioP2;P2;SDS_P1;SDS_P2;PMS_P1;PMS_P2;Temp;Humidity;BMP_temperature;BMP_pressure;BME280_temperature;BME280_humidity;BME280_pressure;Samples;Min_cycle;Max_cycle;Signal;HPM_P1;HPM_P2
2022/11/15 00:00:06;;;;;;;43.50;25.30;;;7.40;99.90;;;;;;5084382;28;20031;-76
2022/11/15 00:02:32;;;;;;;41.17;23.85;;;7.40;99.90;;;;;;5107079;28;20491;-76
2022/11/15 00:04:58;;;;;;;43.90;24.73;;;7.40;99.90;;;;;;5091469;28;20035;-76
2022/11/15 00:07:23;;;;;;;43.03;24.02;;;7.40;99.90;;;;;;5109745;28;20475;-76
2022/11/15 00:09:49;;;;;;;41.13;23.17;;;7.40;99.90;;;;;;5108548;28;20032;-77
2022/11/15 00:12:15;;;;;;;43.15;23.65;;;7.40;99.90;;;;;;5102945;27;20020;-76
2022/11/15 00:14:40;;;;;;;41.47;23.48;;;7.30;99.90;;;;;;5091411;28;20031;-75
2022/11/15 00:17:06;;;;;;;42.67;22.67;;;7.30;99.90;;;;;;5108163;28;20032;-76
2022/11/15 00:19:33;;;;;;;41.00;24.05;;;7.30;99.90;;;;;;5109788;28;20395;-76
2022/11/15 00:21:58;;;;;;;40.72;23.65;;;7.30;99.90;;;;;;5107836;28;20032;-75
2022/11/15 00:24:24;;;;;;;47.78;24.13;;;7.40;99.90;;;;;;5088286;28;20521;-76
2022/11/15 00:26:50;;;;;;;39.75;23.20;;;7.40;99.90;;;;;;5088745;28;20137;-76
2022/11/15 00:29:17;;;;;;;40.67;22.98;;;7.50;99.90;;;;;;5104838;28;20036;-76
2022/11/15 00:31:42;;;;;;;40.78;22.15;;;7.40;99.90;;;;;;5089572;28;20053;-77
2022/11/15 00:34:09;;;;;;;39.40;23.25;;;7.50;99.90;;;;;;5088496;28;20498;-75
2022/11/15 00:36:35;;;;;;;40.45;22.65;;;7.50;99.90;;;;;;5107337;28;20031;-76
2022/11/15 00:39:02;;;;;;;43.90;23.13;;;7.50;99.90;;;;;;5090271;28;20039;-77
2022/11/15 00:41:28;;;;;;;39.15;23.73;;;7.60;99.90;;;;;;5089430;28;20525;-76
2022/11/15 00:43:54;;;;;;;39.60;21.63;;;7.60;99.90;;;;;;5088666;28;20059;-76
2022/11/15 00:46:20;;;;;;;41.40;23.27;;;7.60;99.90;;;;;;5087144;28;20034;-74
2022/11/15 00:48:46;;;;;;;39.83;23.38;;;7.60;99.90;;;;;;5109754;28;20024;-75
2022/11/15 00:51:11;;;;;;;42.38;24.40;;;7.50;99.90;;;;;;5107573;28;20080;-75
2022/11/15 00:53:37;;;;;;;39.90;22.73;;;7.50;99.90;;;;;;5104827;28;20023;-75
2022/11/15 00:56:03;;;;;;;39.40;21.95;;;7.50;99.90;;;;;;5106862;27;20119;-75
2022/11/15 00:58:28;;;;;;;40.05;23.63;;;7.50;99.90;;;;;;5090615;28;20107;-75
2022/11/15 01:00:54;;;;;;;41.65;23.13;;;7.50;99.90;;;;;;5074026;28;20030;-74
2022/11/15 01:03:20;;;;;;;36.75;21.13;;;7.50;99.90;;;;;;5088167;28;20039;-75
2022/11/15 01:05:46;;;;;;;35.38;21.45;;;7.50;99.90;;;;;;5075052;28;20031;-75
2022/11/15 01:08:15;;;;;;;38.38;22.23;;;7.50;99.90;;;;;;5103423;28;20064;-75
2022/11/15 01:10:41;;;;;;;38.58;21.70;;;7.50;99.90;;;;;;5089997;28;20016;-75
2022/11/15 01:13:07;;;;;;;35.65;21.95;;;7.50;99.90;;;;;;5086478;28;20019;-75
2022/11/15 01:15:33;;;;;;;37.40;21.40;;;7.40;99.90;;;;;;5105597;28;20064;-75
2022/11/15 01:17:59;;;;;;;34.78;21.23;;;7.40;99.90;;;;;;5091163;28;20031;-75
2022/11/15 01:20:24;;;;;;;37.38;22.23;;;7.40;99.90;;;;;;5107987;28;20072;-76
2022/11/15 01:22:50;;;;;;;38.60;22.77;;;7.30;99.90;;;;;;5107547;28;20063;-75
2022/11/15 01:25:16;;;;;;;37.25;21.10;;;7.30;99.90;;;;;;5089035;28;20024;-75
2022/11/15 01:27:42;;;;;;;39.28;20.58;;;7.30;99.90;;;;;;5105310;28;20028;-75
2022/11/15 01:30:08;;;;;;;37.03;19.90;;;7.30;99.90;;;;;;5106614;28;20465;-75
2022/11/15 01:32:34;;;;;;;38.45;21.88;;;7.20;99.90;;;;;;5089373;28;20024;-75
2022/11/15 01:34:59;;;;;;;35.53;20.65;;;7.20;99.90;;;;;;5105554;28;20460;-76
2022/11/15 01:37:25;;;;;;;36.17;21.33;;;7.20;99.90;;;;;;5108237;28;20074;-76
2022/11/15 01:39:51;;;;;;;38.00;21.67;;;7.20;99.90;;;;;;5106732;28;20048;-75
2022/11/15 01:42:18;;;;;;;38.25;22.27;;;7.20;99.90;;;;;;5102812;28;20027;-75
2022/11/15 01:44:47;;;;;;;33.67;21.20;;;7.10;99.90;;;;;;5107407;28;20097;-76
2022/11/15 01:47:18;;;;;;;36.63;21.27;;;7.10;99.90;;;;;;5089580;28;20027;-76
2022/11/15 01:50:19;;;;;;;34.63;20.38;;;7.10;99.90;;;;;;5088490;28;20073;-76
2022/11/15 01:52:46;;;;;;;34.72;20.77;;;7.10;99.90;;;;;;5077121;28;20114;-76
2022/11/15 01:55:25;;;;;;;39.03;21.45;;;7.10;99.90;;;;;;5106839;28;20027;-76
2022/11/15 01:57:56;;;;;;;35.83;20.77;;;7.10;99.90;;;;;;5105857;28;20031;-76
2022/11/15 02:00:22;;;;;;;37.00;20.52;;;7.10;99.90;;;;;;5090053;28;20036;-76
2022/11/15 02:02:48;;;;;;;37.25;22.38;;;7.00;99.90;;;;;;5102246;28;20031;-76
2022/11/15 02:05:14;;;;;;;37.47;21.80;;;7.00;99.90;;;;;;5085895;28;20062;-75
2022/11/15 02:07:40;;;;;;;35.13;21.33;;;7.10;99.90;;;;;;5089488;28;20024;-76
2022/11/15 02:10:17;;;;;;;33.88;20.63;;;7.10;99.90;;;;;;5085520;28;20110;-76
2022/11/15 02:12:42;;;;;;;37.65;21.48;;;7.00;99.90;;;;;;5103263;28;20039;-76
2022/11/15 02:15:10;;;;;;;36.65;20.52;;;7.00;99.90;;;;;;5091289;28;20031;-75
2022/11/15 02:17:58;;;;;;;34.90;19.90;;;7.00;99.90;;;;;;5105673;28;20031;-76
2022/11/15 02:21:03;;;;;;;35.08;20.80;;;7.00;99.90;;;;;;5108600;28;20088;-76
2022/11/15 02:24:11;;;;;;;33.33;19.85;;;7.00;99.90;;;;;;5103723;28;20084;-75
2022/11/15 02:27:14;;;;;;;35.60;19.35;;;7.00;99.90;;;;;;5087021;28;20024;-75
2022/11/15 02:30:01;;;;;;;32.20;19.95;;;7.00;99.90;;;;;;5105068;28;20073;-76
2022/11/15 02:33:05;;;;;;;35.28;20.02;;;7.00;99.90;;;;;;5105335;28;20391;-76
2022/11/15 02:35:34;;;;;;;33.97;19.90;;;6.90;99.90;;;;;;5079086;28;20116;-76
2022/11/15 02:38:17;;;;;;;35.72;19.50;;;6.90;99.90;;;;;;5089387;28;20080;-76
2022/11/15 02:41:02;;;;;;;37.95;21.42;;;6.90;99.90;;;;;;5069793;28;20116;-76
2022/11/15 02:43:56;;;;;;;37.20;20.30;;;6.90;99.90;;;;;;5104617;28;20039;-76
2022/11/15 02:49:39;;;;;;;36.35;20.38;;;6.80;99.90;;;;;;5105337;28;20039;-77
2022/11/15 02:52:05;;;;;;;41.15;21.15;;;6.80;99.90;;;;;;5106626;28;20030;-76
2022/11/15 02:54:33;;;;;;;35.45;21.33;;;6.80;99.90;;;;;;5103739;28;20033;-76
2022/11/15 02:57:05;;;;;;;34.67;19.77;;;6.80;99.90;;;;;;5086340;28;20062;-76
2022/11/15 02:59:52;;;;;;;37.45;21.08;;;6.80;99.90;;;;;;5104366;28;20545;-75
2022/11/15 03:02:27;;;;;;;40.10;22.35;;;6.80;99.90;;;;;;5106077;28;20028;-76
2022/11/15 03:05:04;;;;;;;36.08;21.42;;;6.80;99.90;;;;;;5082740;28;20032;-75
2022/11/15 03:07:37;;;;;;;34.88;20.38;;;6.80;99.90;;;;;;5088128;28;20515;-75
2022/11/15 03:10:16;;;;;;;37.03;19.13;;;6.80;99.90;;;;;;5106860;28;20028;-76
2022/11/15 03:13:06;;;;;;;34.00;19.65;;;6.80;99.90;;;;;;5109979;28;20080;-76
2022/11/15 03:15:36;;;;;;;38.58;21.50;;;6.80;99.90;;;;;;5110294;28;20028;-76
2022/11/15 03:18:38;;;;;;;35.08;20.27;;;6.80;99.90;;;;;;5110176;28;20031;-76
2022/11/15 03:21:07;;;;;;;33.22;19.52;;;6.80;99.90;;;;;;5092201;28;20027;-75
2022/11/15 03:23:36;;;;;;;33.00;19.27;;;6.80;99.90;;;;;;5107928;28;20034;-76
2022/11/15 03:26:04;;;;;;;33.85;19.38;;;6.80;99.90;;;;;;5111192;28;20523;-75
2022/11/15 03:28:41;;;;;;;34.22;20.08;;;6.80;99.90;;;;;;5091635;28;20024;-76
2022/11/15 03:33:55;;;;;;;33.30;19.33;;;6.80;99.90;;;;;;5109414;28;20058;-75
2022/11/15 03:36:24;;;;;;;34.05;19.15;;;6.80;99.90;;;;;;5108046;28;20031;-76
2022/11/15 03:38:55;;;;;;;34.97;18.90;;;6.80;99.90;;;;;;5107438;28;20035;-76
2022/11/15 03:41:31;;;;;;;38.10;19.05;;;6.80;99.90;;;;;;5110858;28;20024;-75
2022/11/15 03:44:09;;;;;;;33.40;18.92;;;6.80;99.90;;;;;;5088454;28;20131;-76
2022/11/15 03:46:44;;;;;;;36.67;20.13;;;6.80;99.90;;;;;;5092365;28;20080;-76
2022/11/15 03:49:19;;;;;;;32.50;17.65;;;6.80;99.90;;;;;;5093342;28;20024;-76
2022/11/15 03:51:44;;;;;;;33.28;19.05;;;6.80;99.90;;;;;;5108822;28;20030;-76
2022/11/15 03:54:12;;;;;;;33.25;19.00;;;6.80;99.90;;;;;;5084399;28;20040;-75
2022/11/15 03:56:38;;;;;;;33.25;19.27;;;6.80;99.90;;;;;;5092710;28;20039;-75
2022/11/15 03:59:04;;;;;;;31.58;17.83;;;6.80;99.90;;;;;;5113849;28;20028;-75
2022/11/15 04:01:29;;;;;;;31.60;18.10;;;6.80;99.90;;;;;;5111406;28;20081;-76
2022/11/15 04:03:55;;;;;;;28.65;17.38;;;6.80;99.90;;;;;;5089884;28;20039;-76
2022/11/15 04:06:21;;;;;;;31.00;18.40;;;6.80;99.90;;;;;;5091919;28;20020;-76
2022/11/15 04:08:48;;;;;;;30.15;17.63;;;6.80;99.90;;;;;;5106614;28;20043;-76
2022/11/15 04:11:13;;;;;;;27.25;17.13;;;6.80;99.90;;;;;;5101304;28;20027;-76
2022/11/15 04:13:39;;;;;;;31.27;16.92;;;6.80;99.90;;;;;;5074952;28;20027;-76
2022/11/15 04:16:05;;;;;;;27.65;16.50;;;6.80;99.90;;;;;;5107562;28;20024;-76
2022/11/15 04:18:31;;;;;;;28.55;16.05;;;6.80;99.90;;;;;;5107171;28;20587;-76
2022/11/15 04:26:20;;;;;;;27.15;16.05;;;6.90;99.90;;;;;;5090645;28;20062;-76
2022/11/15 04:31:31;;;;;;;26.60;16.30;;;6.90;99.90;;;;;;5108237;28;20061;-75
2022/11/15 04:33:57;;;;;;;29.20;17.13;;;6.90;99.90;;;;;;5090463;28;20039;-75
2022/11/15 04:39:08;;;;;;;26.83;15.50;;;6.90;99.90;;;;;;5108668;28;20109;-76
2022/11/15 04:41:34;;;;;;;26.00;16.27;;;7.00;99.90;;;;;;5088890;28;20581;-75
2022/11/15 04:44:00;;;;;;;24.55;14.73;;;7.00;99.90;;;;;;5109809;28;20050;-74
2022/11/15 04:46:26;;;;;;;26.55;15.50;;;7.00;99.90;;;;;;5106864;28;20101;-75
2022/11/15 04:48:52;;;;;;;25.25;15.35;;;7.10;99.90;;;;;;5090322;28;20024;-75
2022/11/15 04:51:18;;;;;;;28.63;15.55;;;7.20;99.90;;;;;;5108589;28;20456;-75
2022/11/15 04:53:44;;;;;;;26.10;16.48;;;7.20;99.90;;;;;;5087535;28;20062;-76
2022/11/15 04:56:10;;;;;;;22.73;14.38;;;7.20;99.90;;;;;;5105418;28;20534;-74
2022/11/15 04:58:36;;;;;;;25.35;15.02;;;7.30;99.90;;;;;;5109396;28;20134;-75
2022/11/15 05:01:14;;;;;;;31.65;17.33;;;7.30;99.90;;;;;;5107930;28;20086;-75
2022/11/15 05:06:24;;;;;;;28.23;16.88;;;7.30;99.90;;;;;;5106901;28;20125;-75
2022/11/15 05:08:51;;;;;;;28.85;15.57;;;7.30;99.90;;;;;;5106787;28;20106;-75
2022/11/15 05:11:16;;;;;;;23.65;13.88;;;7.40;99.90;;;;;;5081288;28;20016;-75
2022/11/15 05:13:42;;;;;;;25.60;14.95;;;7.40;99.90;;;;;;5102040;28;20066;-75
2022/11/15 05:16:08;;;;;;;25.98;14.25;;;7.40;99.90;;;;;;5103868;28;20390;-75
2022/11/15 05:18:34;;;;;;;24.00;14.55;;;7.50;99.90;;;;;;5108162;28;20027;-75
2022/11/15 05:21:04;;;;;;;26.02;15.50;;;7.50;99.90;;;;;;5106052;28;20034;-75
2022/11/15 05:23:30;;;;;;;30.48;15.30;;;7.50;99.90;;;;;;5089668;28;20122;-74
2022/11/15 05:26:02;;;;;;;28.33;16.63;;;7.40;99.90;;;;;;5069239;28;20059;-75
2022/11/15 05:28:28;;;;;;;27.73;17.42;;;7.40;99.90;;;;;;5090528;28;20020;-75
2022/11/15 05:31:04;;;;;;;28.55;16.23;;;7.50;99.90;;;;;;5106569;28;20016;-75
2022/11/15 05:33:30;;;;;;;29.15;16.55;;;7.50;99.90;;;;;;5088827;28;20034;-77
2022/11/15 05:36:03;;;;;;;29.63;16.83;;;7.50;99.90;;;;;;5107412;28;20150;-75
2022/11/15 05:38:31;;;;;;;28.50;16.92;;;7.50;99.90;;;;;;5098710;28;20024;-75
2022/11/15 05:40:57;;;;;;;27.95;15.38;;;7.50;99.90;;;;;;5088089;28;20189;-75
2022/11/15 05:43:23;;;;;;;24.33;15.45;;;7.50;99.90;;;;;;5089596;28;20102;-75
2022/11/15 05:45:50;;;;;;;27.67;16.08;;;7.50;99.90;;;;;;5102735;28;20117;-74
2022/11/15 05:48:16;;;;;;;26.60;15.05;;;7.60;99.90;;;;;;5102118;28;20247;-76
2022/11/15 05:50:44;;;;;;;26.75;14.93;;;7.60;99.90;;;;;;5103813;28;20503;-76
2022/11/15 05:53:14;;;;;;;26.08;15.48;;;7.60;99.90;;;;;;5108770;28;20054;-76
2022/11/15 05:55:41;;;;;;;24.55;14.48;;;7.60;99.90;;;;;;5087068;28;20391;-75
2022/11/15 05:58:07;;;;;;;25.80;16.10;;;7.70;99.90;;;;;;5105389;28;20067;-76
2022/11/15 06:00:33;;;;;;;29.63;17.15;;;7.70;99.90;;;;;;5097224;28;20618;-76
2022/11/15 06:02:59;;;;;;;28.13;15.98;;;7.70;99.90;;;;;;5082960;28;20034;-76
2022/11/15 06:05:24;;;;;;;24.38;15.90;;;7.70;99.90;;;;;;5081901;28;20028;-77
2022/11/15 06:07:52;;;;;;;33.47;17.15;;;7.70;99.90;;;;;;5074590;28;20047;-77
2022/11/15 06:10:18;;;;;;;25.63;14.32;;;7.70;99.90;;;;;;5077434;28;20028;-76
2022/11/15 06:12:45;;;;;;;25.15;14.55;;;7.70;99.90;;;;;;5091742;28;20016;-77
2022/11/15 06:15:11;;;;;;;28.27;15.38;;;7.80;99.90;;;;;;5089112;28;20044;-79
2022/11/15 06:17:37;;;;;;;22.92;14.50;;;7.80;99.90;;;;;;5052306;28;20695;-76
2022/11/15 06:20:03;;;;;;;22.10;14.82;;;7.80;99.90;;;;;;5073394;28;20036;-76
2022/11/15 06:22:29;;;;;;;28.27;16.58;;;7.80;99.90;;;;;;5103655;28;20035;-77
2022/11/15 06:24:55;;;;;;;24.85;14.65;;;7.80;99.90;;;;;;5089133;28;20108;-76
2022/11/15 06:27:20;;;;;;;25.25;15.63;;;7.90;99.90;;;;;;5105781;28;20019;-77
2022/11/15 06:29:47;;;;;;;26.38;15.80;;;7.80;99.90;;;;;;5105076;28;20024;-74
2022/11/15 06:32:13;;;;;;;27.90;16.25;;;7.90;99.90;;;;;;5097357;28;20019;-75
2022/11/15 06:34:39;;;;;;;31.35;17.10;;;7.90;99.90;;;;;;5101807;28;20023;-74
2022/11/15 06:37:04;;;;;;;30.27;16.38;;;7.90;99.90;;;;;;5105519;28;20519;-77
2022/11/15 06:39:30;;;;;;;26.75;15.13;;;7.90;99.90;;;;;;5084291;28;20039;-75
2022/11/15 06:41:56;;;;;;;26.70;16.58;;;7.90;99.90;;;;;;5076552;28;20036;-74
2022/11/15 06:44:22;;;;;;;24.77;13.98;;;7.90;99.90;;;;;;5073845;28;20040;-74
2022/11/15 06:46:50;;;;;;;22.92;14.20;;;7.90;99.90;;;;;;5100779;27;20048;-75
2022/11/15 06:49:16;;;;;;;22.23;13.43;;;7.90;99.90;;;;;;5081562;28;20039;-76
2022/11/15 06:51:42;;;;;;;24.17;15.70;;;7.90;99.90;;;;;;5086544;28;20015;-78
2022/11/15 06:54:09;;;;;;;25.80;15.65;;;8.00;99.90;;;;;;5080593;28;20107;-77
2022/11/15 06:56:36;;;;;;;26.88;15.70;;;8.00;99.90;;;;;;5100392;28;20121;-79
2022/11/15 06:59:01;;;;;;;27.80;15.65;;;8.00;99.90;;;;;;5102128;28;20035;-76
2022/11/15 07:01:27;;;;;;;22.55;14.63;;;8.00;99.90;;;;;;5082878;28;20024;-75
2022/11/15 07:03:53;;;;;;;26.35;15.57;;;8.00;99.90;;;;;;5071615;28;20035;-75
2022/11/15 07:06:20;;;;;;;22.30;13.85;;;8.10;99.90;;;;;;5081792;28;20104;-76
2022/11/15 07:08:46;;;;;;;24.35;15.65;;;8.10;99.90;;;;;;5066033;28;20086;-75
2022/11/15 07:11:12;;;;;;;26.30;15.93;;;8.10;99.90;;;;;;5085445;28;20035;-76
2022/11/15 07:13:37;;;;;;;25.30;15.25;;;8.10;99.90;;;;;;5086118;28;20068;-75
2022/11/15 07:16:05;;;;;;;22.08;14.15;;;8.10;99.90;;;;;;5089126;28;20031;-75
2022/11/15 07:18:33;;;;;;;30.33;16.50;;;8.10;99.90;;;;;;5089343;28;20030;-75
2022/11/15 07:21:07;;;;;;;25.30;16.02;;;8.10;99.90;;;;;;5087688;28;20024;-75
2022/11/15 07:23:36;;;;;;;31.27;16.58;;;8.10;99.90;;;;;;5102504;28;20031;-75
2022/11/15 07:26:01;;;;;;;26.25;15.95;;;8.10;99.90;;;;;;5083720;28;20069;-76
2022/11/15 07:28:27;;;;;;;29.52;16.75;;;8.10;99.90;;;;;;5105846;28;20062;-73
2022/11/15 07:30:53;;;;;;;28.73;16.92;;;8.10;99.90;;;;;;5107347;28;20028;-75
2022/11/15 07:33:19;;;;;;;34.80;17.60;;;8.20;99.90;;;;;;5072696;28;20080;-76
2022/11/15 07:35:53;;;;;;;26.58;16.38;;;8.10;99.90;;;;;;5104839;28;20035;-76
2022/11/15 07:38:22;;;;;;;23.95;15.27;;;8.10;99.90;;;;;;5105104;28;20109;-77
2022/11/15 07:40:59;;;;;;;24.52;14.80;;;8.10;99.90;;;;;;5103588;28;20028;-76
2022/11/15 07:43:27;;;;;;;31.27;16.02;;;8.20;99.90;;;;;;5085580;28;20030;-76
2022/11/15 07:45:53;;;;;;;27.75;16.40;;;8.20;99.90;;;;;;5102286;28;21229;-76
2022/11/15 07:48:19;;;;;;;30.65;17.60;;;8.20;99.90;;;;;;5106683;28;20387;-76
2022/11/15 07:50:45;;;;;;;30.73;15.68;;;8.20;99.90;;;;;;5102502;28;20023;-76
2022/11/15 07:53:11;;;;;;;28.52;16.05;;;8.20;99.90;;;;;;5102817;28;20111;-76
2022/11/15 07:55:39;;;;;;;31.65;16.80;;;8.20;99.90;;;;;;5108625;28;20092;-76
2022/11/15 07:58:07;;;;;;;26.50;14.80;;;8.20;99.90;;;;;;5104330;28;20039;-76
2022/11/15 08:00:33;;;;;;;23.45;14.52;;;8.20;99.90;;;;;;5089849;28;20028;-76
2022/11/15 08:03:13;;;;;;;29.60;16.77;;;8.30;99.90;;;;;;5090660;28;20104;-76
2022/11/15 08:05:41;;;;;;;27.67;15.93;;;8.30;99.90;;;;;;5087366;28;20146;-75
2022/11/15 08:08:08;;;;;;;35.05;16.38;;;8.30;99.90;;;;;;5106740;28;20051;-74
2022/11/15 08:10:35;;;;;;;28.30;15.88;;;8.30;99.90;;;;;;5092801;28;20023;-77
2022/11/15 08:13:05;;;;;;;25.25;13.95;;;8.30;99.90;;;;;;5091653;28;20027;-74
2022/11/15 08:15:31;;;;;;;26.70;15.88;;;8.30;99.90;;;;;;5104035;28;20032;-75
2022/11/15 08:17:59;;;;;;;24.75;15.35;;;8.30;99.90;;;;;;5088016;28;20031;-74
2022/11/15 08:20:29;;;;;;;25.45;15.95;;;8.30;99.90;;;;;;5110238;28;20499;-78
2022/11/15 08:22:56;;;;;;;26.38;15.73;;;8.30;99.90;;;;;;5089879;28;20031;-75
2022/11/15 08:25:23;;;;;;;28.95;14.57;;;8.30;99.90;;;;;;5105674;27;20429;-74
2022/11/15 08:27:52;;;;;;;26.90;16.08;;;8.30;99.90;;;;;;5109233;28;20180;-75
2022/11/15 08:30:18;;;;;;;24.58;15.02;;;8.30;99.90;;;;;;5090261;28;20028;-75
2022/11/15 08:32:44;;;;;;;24.58;15.15;;;8.30;99.90;;;;;;5103303;27;20023;-75
2022/11/15 08:35:10;;;;;;;27.27;15.93;;;8.30;99.90;;;;;;5109184;28;20446;-75
2022/11/15 08:37:35;;;;;;;25.30;15.40;;;8.30;99.90;;;;;;5091738;28;20035;-75
2022/11/15 08:40:01;;;;;;;25.27;15.85;;;8.30;99.90;;;;;;5094275;28;20019;-75
2022/11/15 08:42:27;;;;;;;23.10;13.57;;;8.40;99.90;;;;;;5110786;28;20028;-75
2022/11/15 08:44:54;;;;;;;27.25;14.07;;;8.40;99.90;;;;;;5106199;28;20027;-75
2022/11/15 08:47:19;;;;;;;27.85;16.15;;;8.40;99.90;;;;;;5104224;28;20020;-75
2022/11/15 08:49:45;;;;;;;25.08;14.88;;;8.40;99.90;;;;;;5104543;27;20136;-75
2022/11/15 08:52:11;;;;;;;26.35;14.85;;;8.50;99.90;;;;;;5089959;28;20372;-75
2022/11/15 08:54:37;;;;;;;26.75;15.48;;;8.40;99.90;;;;;;5088549;28;20415;-77
2022/11/15 08:57:02;;;;;;;24.00;13.45;;;8.50;99.90;;;;;;5089133;28;20035;-76
2022/11/15 08:59:28;;;;;;;26.25;14.85;;;8.50;99.90;;;;;;5091754;28;20031;-75
2022/11/15 09:01:54;;;;;;;24.23;13.68;;;8.50;99.90;;;;;;5109157;28;20031;-75
2022/11/15 09:04:20;;;;;;;22.35;13.70;;;8.50;99.90;;;;;;5090627;28;20543;-75
2022/11/15 09:06:45;;;;;;;23.27;14.60;;;8.50;99.90;;;;;;5090109;28;20020;-74
2022/11/15 09:09:11;;;;;;;22.80;13.95;;;8.50;99.90;;;;;;5092173;28;20024;-74
2022/11/15 09:11:37;;;;;;;24.13;15.13;;;8.50;99.90;;;;;;5091868;28;20283;-75
2022/11/15 09:14:03;;;;;;;23.88;13.80;;;8.50;99.90;;;;;;5074062;28;20520;-76
2022/11/15 09:16:30;;;;;;;25.13;14.60;;;8.60;99.90;;;;;;5087087;28;20058;-76
2022/11/15 09:18:56;;;;;;;24.48;14.95;;;8.60;99.90;;;;;;5107634;28;20583;-76
2022/11/15 09:21:22;;;;;;;27.23;15.38;;;8.60;99.90;;;;;;5107405;28;20031;-75
2022/11/15 09:23:51;;;;;;;26.33;14.77;;;8.60;99.90;;;;;;5105082;28;20110;-75
2022/11/15 09:26:18;;;;;;;19.98;13.60;;;8.70;99.90;;;;;;5106946;28;20027;-74
2022/11/15 09:28:43;;;;;;;23.40;13.55;;;8.70;99.90;;;;;;5108157;28;20019;-75
2022/11/15 09:31:09;;;;;;;21.08;12.60;;;8.80;99.90;;;;;;5086869;28;20026;-75
2022/11/15 09:33:36;;;;;;;23.90;14.27;;;8.90;99.90;;;;;;5108629;28;20024;-75
2022/11/15 09:36:04;;;;;;;21.92;13.55;;;8.90;99.90;;;;;;5103966;28;20045;-75
2022/11/15 09:38:30;;;;;;;22.90;14.02;;;9.00;99.90;;;;;;5109337;28;20679;-75
2022/11/15 09:41:13;;;;;;;19.00;12.55;;;9.20;99.90;;;;;;5108684;28;20143;-75
2022/11/15 09:43:57;;;;;;;20.08;12.70;;;9.30;99.90;;;;;;5104399;28;20073;-75
2022/11/15 09:46:31;;;;;;;17.55;11.32;;;9.30;99.90;;;;;;5088969;28;20036;-77
2022/11/15 09:49:01;;;;;;;21.10;12.85;;;9.40;99.90;;;;;;5089084;28;20043;-76
2022/11/15 09:51:46;;;;;;;22.20;13.05;;;9.50;99.90;;;;;;5104172;28;20080;-76
2022/11/15 09:54:33;;;;;;;20.48;13.45;;;9.50;99.90;;;;;;5072875;28;20504;-76
2022/11/15 09:57:10;;;;;;;23.42;14.25;;;9.50;99.90;;;;;;5108121;28;20031;-76
2022/11/15 09:59:59;;;;;;;23.05;13.63;;;9.50;99.90;;;;;;5108464;28;20413;-76
2022/11/15 10:03:01;;;;;;;23.60;14.52;;;9.40;99.90;;;;;;5100359;28;20112;-76
2022/11/15 10:05:28;;;;;;;26.92;14.57;;;9.40;99.90;;;;;;5089058;28;20023;-76
2022/11/15 10:08:51;;;;;;;22.13;13.65;;;9.40;99.90;;;;;;5107116;28;20111;-76
2022/11/15 10:11:26;;;;;;;23.35;14.00;;;9.40;99.90;;;;;;5050058;28;20028;-75
2022/11/15 10:13:56;;;;;;;22.33;13.90;;;9.40;99.90;;;;;;5064880;28;20032;-76
2022/11/15 10:16:29;;;;;;;26.75;13.60;;;9.40;99.90;;;;;;5077822;28;20046;-77
2022/11/15 10:19:23;;;;;;;25.60;13.90;;;9.50;99.90;;;;;;5073773;28;20020;-75
2022/11/15 10:22:24;;;;;;;22.20;12.82;;;9.50;99.90;;;;;;5089095;28;20056;-75
2022/11/15 10:24:52;;;;;;;21.77;14.02;;;9.60;99.90;;;;;;5090432;28;20028;-75
2022/11/15 10:27:18;;;;;;;19.67;13.73;;;9.60;99.90;;;;;;5090838;28;20118;-76
2022/11/15 10:29:47;;;;;;;18.50;12.13;;;9.60;99.90;;;;;;5106382;28;20027;-75
2022/11/15 10:32:15;;;;;;;18.73;11.98;;;9.60;99.90;;;;;;5105533;28;20023;-75
2022/11/15 10:34:41;;;;;;;19.90;12.98;;;9.70;99.90;;;;;;5089648;28;20019;-75
2022/11/15 10:37:07;;;;;;;18.65;11.82;;;9.70;99.90;;;;;;5089659;28;20030;-76
2022/11/15 10:39:33;;;;;;;21.83;12.57;;;9.70;99.90;;;;;;5088735;28;20449;-75
2022/11/15 10:42:16;;;;;;;23.77;12.80;;;9.80;99.90;;;;;;5090349;28;20041;-75
2022/11/15 10:44:43;;;;;;;19.77;13.00;;;9.70;99.90;;;;;;5106316;28;20115;-76
2022/11/15 10:47:30;;;;;;;22.60;13.68;;;9.70;99.90;;;;;;5107297;28;20028;-76
2022/11/15 10:49:58;;;;;;;19.90;12.65;;;9.60;99.90;;;;;;5090432;28;20032;-76
2022/11/15 10:52:25;;;;;;;20.85;12.00;;;9.60;99.90;;;;;;5106627;28;20056;-75
2022/11/15 10:55:11;;;;;;;20.38;13.40;;;9.60;99.90;;;;;;5086067;28;20036;-75
2022/11/15 10:57:39;;;;;;;19.08;11.90;;;9.60;99.90;;;;;;5082339;28;20027;-76
2022/11/15 11:00:25;;;;;;;22.50;12.77;;;9.60;99.90;;;;;;5090027;28;20117;-75
2022/11/15 11:02:59;;;;;;;18.55;12.73;;;9.70;99.90;;;;;;5086895;28;20411;-75
2022/11/15 11:05:37;;;;;;;19.08;11.23;;;9.70;99.90;;;;;;5069022;28;20024;-75
2022/11/15 11:08:20;;;;;;;16.42;10.82;;;9.80;99.90;;;;;;5070344;28;20038;-75
2022/11/15 11:10:57;;;;;;;17.55;11.20;;;9.90;99.90;;;;;;5100857;28;20154;-75
2022/11/15 11:13:45;;;;;;;19.55;12.80;;;10.00;99.90;;;;;;5105115;28;20023;-74
2022/11/15 11:16:14;;;;;;;16.63;11.15;;;10.10;99.90;;;;;;5107317;28;20104;-75
2022/11/15 11:18:49;;;;;;;18.40;11.18;;;10.10;99.90;;;;;;5069527;28;20042;-75
2022/11/15 11:21:25;;;;;;;21.17;13.27;;;10.10;99.90;;;;;;5108152;28;20066;-74
2022/11/15 11:24:03;;;;;;;18.98;11.75;;;10.10;99.90;;;;;;5089187;28;20024;-74
2022/11/15 11:26:53;;;;;;;18.08;10.45;;;10.10;99.90;;;;;;5100450;28;20027;-77
2022/11/15 11:29:36;;;;;;;16.90;11.20;;;10.10;99.90;;;;;;5088166;28;20024;-77
2022/11/15 11:32:32;;;;;;;20.35;12.23;;;10.20;99.90;;;;;;5108905;28;20020;-77
2022/11/15 11:35:17;;;;;;;16.58;11.75;;;10.30;99.90;;;;;;5111923;28;20055;-77
2022/11/15 11:37:50;;;;;;;19.40;11.90;;;10.30;99.90;;;;;;5096714;28;20031;-78
2022/11/15 11:40:34;;;;;;;16.90;11.23;;;10.30;99.90;;;;;;5111944;28;20032;-77
2022/11/15 11:43:03;;;;;;;17.70;11.38;;;10.30;99.90;;;;;;5113511;28;20072;-77
2022/11/15 11:46:04;;;;;;;17.88;11.43;;;10.30;99.90;;;;;;5109380;28;20031;-77
2022/11/15 11:48:33;;;;;;;17.73;11.63;;;10.30;99.90;;;;;;5088639;28;20048;-77
2022/11/15 11:51:11;;;;;;;18.98;11.70;;;10.30;99.90;;;;;;5092987;28;20619;-77
2022/11/15 11:53:48;;;;;;;22.98;12.75;;;10.40;99.90;;;;;;5108278;28;20036;-76
2022/11/15 11:56:39;;;;;;;19.60;12.27;;;10.30;99.90;;;;;;5104708;28;20559;-76
2022/11/15 11:59:33;;;;;;;17.55;11.30;;;10.30;99.90;;;;;;5111213;28;20085;-77
2022/11/15 12:02:11;;;;;;;16.17;10.60;;;10.30;99.90;;;;;;5107468;28;20020;-77
2022/11/15 12:04:42;;;;;;;15.73;10.15;;;10.40;99.90;;;;;;5077862;28;20031;-76
2022/11/15 12:07:15;;;;;;;19.48;12.27;;;10.30;99.90;;;;;;5090030;28;20024;-77
2022/11/15 12:09:43;;;;;;;18.55;12.05;;;10.30;99.90;;;;;;5108572;28;20023;-76
2022/11/15 12:12:31;;;;;;;15.85;11.20;;;10.40;99.90;;;;;;5092026;28;20148;-75
2022/11/15 12:15:00;;;;;;;25.38;11.68;;;10.40;99.90;;;;;;5092462;28;20435;-75
2022/11/15 12:17:33;;;;;;;17.48;11.43;;;10.50;99.90;;;;;;5108834;28;20024;-75
2022/11/15 12:20:07;;;;;;;17.55;11.13;;;10.50;99.90;;;;;;5093748;28;20023;-76
2022/11/15 12:22:42;;;;;;;20.35;11.73;;;10.60;99.90;;;;;;5105881;28;20024;-76
2022/11/15 12:25:28;;;;;;;21.50;11.07;;;10.60;99.90;;;;;;5107449;28;20038;-77
2022/11/15 12:28:32;;;;;;;16.02;10.13;;;10.70;99.90;;;;;;5093385;28;20012;-76
2022/11/15 12:31:29;;;;;;;17.13;10.02;;;10.70;99.90;;;;;;5104809;28;20042;-76
2022/11/15 12:33:57;;;;;;;17.13;11.18;;;10.80;99.90;;;;;;5105750;28;20628;-78
2022/11/15 12:36:23;;;;;;;19.08;11.50;;;10.70;99.90;;;;;;5109051;28;20024;-77
2022/11/15 12:39:00;;;;;;;18.52;11.65;;;10.70;99.90;;;;;;5093271;28;20055;-78
2022/11/15 12:41:25;;;;;;;17.00;10.88;;;10.70;99.90;;;;;;5089362;28;20019;-75
2022/11/15 12:43:51;;;;;;;16.60;10.63;;;10.70;99.90;;;;;;5090010;27;20046;-76
2022/11/15 12:46:23;;;;;;;18.02;11.40;;;10.80;99.90;;;;;;5091170;28;20093;-78
2022/11/15 12:48:50;;;;;;;;;;;10.80;99.90;;;;;;5109065;28;20031;-76
2022/11/15 12:51:19;;;;;;;21.98;10.88;;;10.80;99.90;;;;;;5109093;28;19915;-75
2022/11/15 12:53:45;;;;;;;17.92;10.32;;;10.80;99.90;;;;;;5107121;28;20149;-76
2022/11/15 12:56:16;;;;;;;20.67;12.10;;;10.80;99.90;;;;;;5090698;28;20055;-76
2022/11/15 12:58:43;;;;;;;20.02;11.32;;;10.90;99.90;;;;;;5105278;27;20036;-76
2022/11/15 13:01:10;;;;;;;19.10;10.73;;;10.90;99.90;;;;;;5087906;28;20119;-75
2022/11/15 13:04:11;;;;;;;19.90;11.35;;;11.00;99.90;;;;;;5105917;28;20055;-77
2022/11/15 13:06:43;;;;;;;14.63;10.17;;;11.00;99.90;;;;;;5105979;28;20170;-77
2022/11/15 13:09:33;;;;;;;16.35;10.32;;;11.00;99.90;;;;;;5089245;28;20374;-76
2022/11/15 13:12:34;;;;;;;14.68;10.40;;;11.10;99.90;;;;;;5088677;28;20032;-78
2022/11/15 13:15:12;;;;;;;14.90;10.27;;;11.10;99.90;;;;;;5107512;28;20080;-77